sensor_id;sensor_type;location;lat;lon;timestamp;temperature;humidity
6690;DHT22;3382;51.576;8.076;2023-01-08T00:02:20;12.70;99.90
6690;DHT22;3382;51.576;8.076;2023-01-08T00:04:46;12.60;99.90
6690;DHT22;3382;51.576;8.076;2023-01-08T00:07:11;12.60;99.90
6690;DHT22;3382;51.576;8.076;2023-01-08T00:09:37;12.60;99.90
6690;DHT22;3382;51.576;8.076;2023-01-08T00:12:02;12.60;99.90
6690;DHT22;3382;51.576;8.076;2023-01-08T00:14:29;12.60;99.90
6690;DHT22;3382;51.576;8.076;2023-01-08T00:16:54;12.70;99.90
6690;DHT22;3382;51.576;8.076;2023-01-08T00:19:20;12.70;99.90
6690;DHT22;3382;51.576;8.076;2023-01-08T00:21:46;12.60;99.90
6690;DHT22;3382;51.576;8.076;2023-01-08T00:24:11;12.70;99.90
6690;DHT22;3382;51.576;8.076;2023-01-08T00:26:37;12.70;99.90
6690;DHT22;3382;51.576;8.076;2023-01-08T00:29:04;12.70;99.90
6690;DHT22;3382;51.576;8.076;2023-01-08T00:31:29;12.70;99.90
6690;DHT22;3382;51.576;8.076;2023-01-08T00:33:55;12.80;99.90
6690;DHT22;3382;51.576;8.076;2023-01-08T00:36:20;12.70;99.90
6690;DHT22;3382;51.576;8.076;2023-01-08T00:38:46;12.60;99.90
6690;DHT22;3382;51.576;8.076;2023-01-08T00:41:13;12.60;99.90
6690;DHT22;3382;51.576;8.076;2023-01-08T00:43:39;12.60;99.90
6690;DHT22;3382;51.576;8.076;2023-01-08T00:46:06;12.60;99.90
6690;DHT22;3382;51.576;8.076;2023-01-08T00:48:32;12.60;99.90
6690;DHT22;3382;51.576;8.076;2023-01-08T00:51:05;12.60;99.90
6690;DHT22;3382;51.576;8.076;2023-01-08T00:53:30;12.60;99.90
6690;DHT22;3382;51.576;8.076;2023-01-08T00:56:01;12.50;99.90
6690;DHT22;3382;51.576;8.076;2023-01-08T00:58:26;12.50;99.90
6690;DHT22;3382;51.576;8.076;2023-01-08T01:00:52;12.50;99.90
6690;DHT22;3382;51.576;8.076;2023-01-08T01:03:18;12.60;99.90
6690;DHT22;3382;51.576;8.076;2023-01-08T01:05:43;12.50;99.90
6690;DHT22;3382;51.576;8.076;2023-01-08T01:08:09;12.50;99.90
6690;DHT22;3382;51.576;8.076;2023-01-08T01:10:36;12.50;99.90
6690;DHT22;3382;51.576;8.076;2023-01-08T01:13:02;12.50;99.90
6690;DHT22;3382;51.576;8.076;2023-01-08T01:15:28;12.50;99.90
6690;DHT22;3382;51.576;8.076;2023-01-08T01:17:53;12.50;99.90
6690;DHT22;3382;51.576;8.076;2023-01-08T01:20:19;12.50;99.90
6690;DHT22;3382;51.576;8.076;2023-01-08T01:22:44;12.50;99.90
6690;DHT22;3382;51.576;8.076;2023-01-08T01:25:10;12.50;99.90
6690;DHT22;3382;51.576;8.076;2023-01-08T01:27:36;12.50;99.90
6690;DHT22;3382;51.576;8.076;2023-01-08T01:30:02;12.50;99.90
6690;DHT22;3382;51.576;8.076;2023-01-08T01:32:28;12.50;99.90
6690;DHT22;3382;51.576;8.076;2023-01-08T01:34:53;12.50;99.90
6690;DHT22;3382;51.576;8.076;2023-01-08T01:37:19;12.50;99.90
6690;DHT22;3382;51.576;8.076;2023-01-08T01:39:48;12.50;99.90
6690;DHT22;3382;51.576;8.076;2023-01-08T01:42:16;12.60;99.90
6690;DHT22;3382;51.576;8.076;2023-01-08T01:45:00;12.60;99.90
6690;DHT22;3382;51.576;8.076;2023-01-08T01:47:34;12.60;99.90
6690;DHT22;3382;51.576;8.076;2023-01-08T01:52:52;12.50;99.90
6690;DHT22;3382;51.576;8.076;2023-01-08T01:55:20;12.50;99.90
6690;DHT22;3382;51.576;8.076;2023-01-08T01:57:51;12.50;99.90
6690;DHT22;3382;51.576;8.076;2023-01-08T02:00:19;12.50;99.90
6690;DHT22;3382;51.576;8.076;2023-01-08T02:02:45;12.50;99.90
6690;DHT22;3382;51.576;8.076;2023-01-08T02:05:11;12.50;99.90
6690;DHT22;3382;51.576;8.076;2023-01-08T02:10:34;12.50;99.90
6690;DHT22;3382;51.576;8.076;2023-01-08T02:13:09;12.50;99.90
6690;DHT22;3382;51.576;8.076;2023-01-08T02:15:54;12.50;99.90
6690;DHT22;3382;51.576;8.076;2023-01-08T02:18:45;12.50;99.90
6690;DHT22;3382;51.576;8.076;2023-01-08T02:21:21;12.50;99.90
6690;DHT22;3382;51.576;8.076;2023-01-08T02:24:04;12.50;99.90
6690;DHT22;3382;51.576;8.076;2023-01-08T02:26:34;12.50;99.90
6690;DHT22;3382;51.576;8.076;2023-01-08T02:31:30;12.60;99.90
6690;DHT22;3382;51.576;8.076;2023-01-08T02:33:57;12.60;99.90
6690;DHT22;3382;51.576;8.076;2023-01-08T02:39:47;12.60;99.90
6690;DHT22;3382;51.576;8.076;2023-01-08T02:42:38;12.60;99.90
6690;DHT22;3382;51.576;8.076;2023-01-08T02:48:11;12.60;99.90
6690;DHT22;3382;51.576;8.076;2023-01-08T02:50:42;12.60;99.90
6690;DHT22;3382;51.576;8.076;2023-01-08T02:53:19;12.60;99.90
6690;DHT22;3382;51.576;8.076;2023-01-08T02:55:50;12.60;99.90
6690;DHT22;3382;51.576;8.076;2023-01-08T02:58:17;12.70;99.90
6690;DHT22;3382;51.576;8.076;2023-01-08T03:00:44;12.60;99.90
6690;DHT22;3382;51.576;8.076;2023-01-08T03:05:42;12.70;99.90
6690;DHT22;3382;51.576;8.076;2023-01-08T03:08:10;12.70;99.90
6690;DHT22;3382;51.576;8.076;2023-01-08T03:10:38;12.70;99.90
6690;DHT22;3382;51.576;8.076;2023-01-08T03:16:08;12.70;99.90
6690;DHT22;3382;51.576;8.076;2023-01-08T03:18:44;12.60;99.90
6690;DHT22;3382;51.576;8.076;2023-01-08T03:21:12;12.80;99.90
6690;DHT22;3382;51.576;8.076;2023-01-08T03:23:40;12.70;99.90
6690;DHT22;3382;51.576;8.076;2023-01-08T03:26:07;12.60;99.90
6690;DHT22;3382;51.576;8.076;2023-01-08T03:28:39;12.70;99.90
6690;DHT22;3382;51.576;8.076;2023-01-08T03:31:07;12.70;99.90
6690;DHT22;3382;51.576;8.076;2023-01-08T03:33:34;12.60;99.90
6690;DHT22;3382;51.576;8.076;2023-01-08T03:36:02;12.60;99.90
6690;DHT22;3382;51.576;8.076;2023-01-08T03:38:33;12.60;99.90
6690;DHT22;3382;51.576;8.076;2023-01-08T03:41:04;12.60;99.90
6690;DHT22;3382;51.576;8.076;2023-01-08T03:43:31;12.60;99.90
6690;DHT22;3382;51.576;8.076;2023-01-08T03:46:00;12.60;99.90
6690;DHT22;3382;51.576;8.076;2023-01-08T03:48:28;12.60;99.90
6690;DHT22;3382;51.576;8.076;2023-01-08T03:50:54;12.60;99.90
6690;DHT22;3382;51.576;8.076;2023-01-08T03:53:20;12.60;99.90
6690;DHT22;3382;51.576;8.076;2023-01-08T03:55:45;12.60;99.90
6690;DHT22;3382;51.576;8.076;2023-01-08T03:58:11;12.60;99.90
6690;DHT22;3382;51.576;8.076;2023-01-08T04:00:37;12.60;99.90
6690;DHT22;3382;51.576;8.076;2023-01-08T04:03:03;12.70;99.90
6690;DHT22;3382;51.576;8.076;2023-01-08T04:05:28;12.60;99.90
6690;DHT22;3382;51.576;8.076;2023-01-08T04:07:55;12.60;99.90
6690;DHT22;3382;51.576;8.076;2023-01-08T04:10:21;12.60;99.90
6690;DHT22;3382;51.576;8.076;2023-01-08T04:12:47;12.60;99.90
6690;DHT22;3382;51.576;8.076;2023-01-08T04:15:13;12.60;99.90
6690;DHT22;3382;51.576;8.076;2023-01-08T04:17:38;12.60;99.90
6690;DHT22;3382;51.576;8.076;2023-01-08T04:20:04;12.60;99.90
6690;DHT22;3382;51.576;8.076;2023-01-08T04:22:30;12.60;99.90
6690;DHT22;3382;51.576;8.076;2023-01-08T04:24:56;12.70;99.90
6690;DHT22;3382;51.576;8.076;2023-01-08T04:27:21;12.60;99.90
6690;DHT22;3382;51.576;8.076;2023-01-08T04:29:47;12.60;99.90
6690;DHT22;3382;51.576;8.076;2023-01-08T04:32:12;12.60;99.90
6690;DHT22;3382;51.576;8.076;2023-01-08T04:34:38;12.50;99.90
6690;DHT22;3382;51.576;8.076;2023-01-08T04:37:03;12.50;99.90
6690;DHT22;3382;51.576;8.076;2023-01-08T04:39:29;12.50;99.90
6690;DHT22;3382;51.576;8.076;2023-01-08T04:41:55;12.50;99.90
6690;DHT22;3382;51.576;8.076;2023-01-08T04:44:20;12.50;99.90
6690;DHT22;3382;51.576;8.076;2023-01-08T04:46:46;12.50;99.90
6690;DHT22;3382;51.576;8.076;2023-01-08T04:49:12;12.50;99.90
6690;DHT22;3382;51.576;8.076;2023-01-08T04:51:38;12.50;99.90
6690;DHT22;3382;51.576;8.076;2023-01-08T04:54:03;12.50;99.90
6690;DHT22;3382;51.576;8.076;2023-01-08T04:56:29;12.50;99.90
6690;DHT22;3382;51.576;8.076;2023-01-08T04:58:56;12.50;99.90
6690;DHT22;3382;51.576;8.076;2023-01-08T05:01:23;12.50;99.90
6690;DHT22;3382;51.576;8.076;2023-01-08T05:04:01;12.50;99.90
6690;DHT22;3382;51.576;8.076;2023-01-08T05:06:28;12.50;99.90
6690;DHT22;3382;51.576;8.076;2023-01-08T05:08:54;12.50;99.90
6690;DHT22;3382;51.576;8.076;2023-01-08T05:11:21;12.50;99.90
6690;DHT22;3382;51.576;8.076;2023-01-08T05:13:48;12.50;99.90
6690;DHT22;3382;51.576;8.076;2023-01-08T05:16:14;12.50;99.90
6690;DHT22;3382;51.576;8.076;2023-01-08T05:18:40;12.50;99.90
6690;DHT22;3382;51.576;8.076;2023-01-08T05:21:05;12.50;99.90
6690;DHT22;3382;51.576;8.076;2023-01-08T05:23:32;12.50;99.90
6690;DHT22;3382;51.576;8.076;2023-01-08T05:25:59;12.50;99.90
6690;DHT22;3382;51.576;8.076;2023-01-08T05:28:26;12.50;99.90
6690;DHT22;3382;51.576;8.076;2023-01-08T05:30:52;12.50;99.90
6690;DHT22;3382;51.576;8.076;2023-01-08T05:33:18;12.60;99.90
6690;DHT22;3382;51.576;8.076;2023-01-08T05:35:43;12.50;99.90
6690;DHT22;3382;51.576;8.076;2023-01-08T05:38:09;12.50;99.90
6690;DHT22;3382;51.576;8.076;2023-01-08T05:40:34;12.40;99.90
6690;DHT22;3382;51.576;8.076;2023-01-08T05:43:00;12.40;99.90
6690;DHT22;3382;51.576;8.076;2023-01-08T05:45:27;12.40;99.90
6690;DHT22;3382;51.576;8.076;2023-01-08T05:47:53;12.50;99.90
6690;DHT22;3382;51.576;8.076;2023-01-08T05:50:19;12.40;99.90
6690;DHT22;3382;51.576;8.076;2023-01-08T05:52:44;12.40;99.90
6690;DHT22;3382;51.576;8.076;2023-01-08T05:55:10;12.40;99.90
6690;DHT22;3382;51.576;8.076;2023-01-08T05:57:36;12.40;99.90
6690;DHT22;3382;51.576;8.076;2023-01-08T06:00:06;12.30;99.90
6690;DHT22;3382;51.576;8.076;2023-01-08T06:02:32;12.30;99.90
6690;DHT22;3382;51.576;8.076;2023-01-08T06:04:58;12.40;99.90
6690;DHT22;3382;51.576;8.076;2023-01-08T06:07:24;12.30;99.90
6690;DHT22;3382;51.576;8.076;2023-01-08T06:09:49;12.40;99.90
6690;DHT22;3382;51.576;8.076;2023-01-08T06:12:15;12.40;99.90
6690;DHT22;3382;51.576;8.076;2023-01-08T06:14:41;12.30;99.90
6690;DHT22;3382;51.576;8.076;2023-01-08T06:17:06;12.40;99.90
6690;DHT22;3382;51.576;8.076;2023-01-08T06:19:32;12.30;99.90
6690;DHT22;3382;51.576;8.076;2023-01-08T06:21:58;12.30;99.90
6690;DHT22;3382;51.576;8.076;2023-01-08T06:24:23;12.20;99.90
6690;DHT22;3382;51.576;8.076;2023-01-08T06:26:49;12.40;99.90
6690;DHT22;3382;51.576;8.076;2023-01-08T06:29:15;12.20;99.90
6690;DHT22;3382;51.576;8.076;2023-01-08T06:31:40;12.20;99.90
6690;DHT22;3382;51.576;8.076;2023-01-08T06:34:06;12.10;99.90
6690;DHT22;3382;51.576;8.076;2023-01-08T06:36:31;12.20;99.90
6690;DHT22;3382;51.576;8.076;2023-01-08T06:38:57;12.20;99.90
6690;DHT22;3382;51.576;8.076;2023-01-08T06:41:23;12.20;99.90
6690;DHT22;3382;51.576;8.076;2023-01-08T06:43:48;12.10;99.90
6690;DHT22;3382;51.576;8.076;2023-01-08T06:46:14;12.10;99.90
6690;DHT22;3382;51.576;8.076;2023-01-08T06:48:39;12.10;99.90
6690;DHT22;3382;51.576;8.076;2023-01-08T06:51:05;12.10;99.90
6690;DHT22;3382;51.576;8.076;2023-01-08T06:53:31;12.10;99.90
6690;DHT22;3382;51.576;8.076;2023-01-08T06:55:57;12.10;99.90
6690;DHT22;3382;51.576;8.076;2023-01-08T06:58:24;12.10;99.90
6690;DHT22;3382;51.576;8.076;2023-01-08T07:00:50;12.10;99.90
6690;DHT22;3382;51.576;8.076;2023-01-08T07:03:16;12.10;99.90
6690;DHT22;3382;51.576;8.076;2023-01-08T07:05:42;12.00;99.90
6690;DHT22;3382;51.576;8.076;2023-01-08T07:08:15;12.00;99.90
6690;DHT22;3382;51.576;8.076;2023-01-08T07:10:41;12.00;99.90
6690;DHT22;3382;51.576;8.076;2023-01-08T07:13:07;12.00;99.90
6690;DHT22;3382;51.576;8.076;2023-01-08T07:15:35;12.00;99.90
6690;DHT22;3382;51.576;8.076;2023-01-08T07:18:03;12.00;99.90
6690;DHT22;3382;51.576;8.076;2023-01-08T07:20:30;12.00;99.90
6690;DHT22;3382;51.576;8.076;2023-01-08T07:23:00;11.90;99.90
6690;DHT22;3382;51.576;8.076;2023-01-08T07:25:27;11.90;99.90
6690;DHT22;3382;51.576;8.076;2023-01-08T07:27:53;11.90;99.90
6690;DHT22;3382;51.576;8.076;2023-01-08T07:30:18;11.90;99.90
6690;DHT22;3382;51.576;8.076;2023-01-08T07:32:44;11.80;99.90
6690;DHT22;3382;51.576;8.076;2023-01-08T07:35:09;11.80;99.90
6690;DHT22;3382;51.576;8.076;2023-01-08T07:37:38;11.80;99.90
6690;DHT22;3382;51.576;8.076;2023-01-08T07:40:05;11.80;99.90
6690;DHT22;3382;51.576;8.076;2023-01-08T07:42:31;11.70;99.90
6690;DHT22;3382;51.576;8.076;2023-01-08T07:44:56;11.70;99.90
6690;DHT22;3382;51.576;8.076;2023-01-08T07:47:22;11.70;99.90
6690;DHT22;3382;51.576;8.076;2023-01-08T07:49:47;11.90;99.90
6690;DHT22;3382;51.576;8.076;2023-01-08T07:52:13;11.70;99.90
6690;DHT22;3382;51.576;8.076;2023-01-08T07:54:39;11.70;99.90
6690;DHT22;3382;51.576;8.076;2023-01-08T07:57:04;11.70;99.90
6690;DHT22;3382;51.576;8.076;2023-01-08T07:59:30;11.70;99.90
6690;DHT22;3382;51.576;8.076;2023-01-08T08:01:56;11.70;99.90
6690;DHT22;3382;51.576;8.076;2023-01-08T08:04:21;11.70;99.90
6690;DHT22;3382;51.576;8.076;2023-01-08T08:06:48;11.70;99.90
6690;DHT22;3382;51.576;8.076;2023-01-08T08:09:14;11.70;99.90
6690;DHT22;3382;51.576;8.076;2023-01-08T08:11:40;11.70;99.90
6690;DHT22;3382;51.576;8.076;2023-01-08T08:14:05;11.70;99.90
6690;DHT22;3382;51.576;8.076;2023-01-08T08:16:31;11.70;99.90
6690;DHT22;3382;51.576;8.076;2023-01-08T08:18:58;11.70;99.90
6690;DHT22;3382;51.576;8.076;2023-01-08T08:21:23;11.80;99.90
6690;DHT22;3382;51.576;8.076;2023-01-08T08:23:49;11.80;99.90
6690;DHT22;3382;51.576;8.076;2023-01-08T08:26:15;11.90;99.90
6690;DHT22;3382;51.576;8.076;2023-01-08T08:28:40;11.90;99.90
6690;DHT22;3382;51.576;8.076;2023-01-08T08:31:06;11.90;99.90
6690;DHT22;3382;51.576;8.076;2023-01-08T08:33:32;11.90;99.90
6690;DHT22;3382;51.576;8.076;2023-01-08T08:35:57;11.90;99.90
6690;DHT22;3382;51.576;8.076;2023-01-08T08:38:23;12.00;99.90
6690;DHT22;3382;51.576;8.076;2023-01-08T08:40:50;12.70;99.90
6690;DHT22;3382;51.576;8.076;2023-01-08T08:43:16;13.50;99.90
6690;DHT22;3382;51.576;8.076;2023-01-08T08:45:42;13.40;99.90
6690;DHT22;3382;51.576;8.076;2023-01-08T08:48:07;13.00;99.90
6690;DHT22;3382;51.576;8.076;2023-01-08T08:50:34;12.70;99.90
6690;DHT22;3382;51.576;8.076;2023-01-08T08:53:01;12.40;99.90
6690;DHT22;3382;51.576;8.076;2023-01-08T08:55:27;12.20;99.90
6690;DHT22;3382;51.576;8.076;2023-01-08T08:57:53;12.00;99.90
6690;DHT22;3382;51.576;8.076;2023-01-08T09:00:18;12.10;99.90
6690;DHT22;3382;51.576;8.076;2023-01-08T09:02:44;12.60;99.90
6690;DHT22;3382;51.576;8.076;2023-01-08T09:05:10;13.20;99.90
6690;DHT22;3382;51.576;8.076;2023-01-08T09:07:36;13.70;99.90
6690;DHT22;3382;51.576;8.076;2023-01-08T09:10:02;13.80;99.90
6690;DHT22;3382;51.576;8.076;2023-01-08T09:12:28;13.80;99.90
6690;DHT22;3382;51.576;8.076;2023-01-08T09:14:54;13.90;99.90
6690;DHT22;3382;51.576;8.076;2023-01-08T09:17:21;14.30;99.90
6690;DHT22;3382;51.576;8.076;2023-01-08T09:19:47;14.60;99.90
6690;DHT22;3382;51.576;8.076;2023-01-08T09:22:12;14.70;99.90
6690;DHT22;3382;51.576;8.076;2023-01-08T09:24:38;15.10;99.90
6690;DHT22;3382;51.576;8.076;2023-01-08T09:27:04;15.60;99.90
6690;DHT22;3382;51.576;8.076;2023-01-08T09:29:29;15.90;99.90
6690;DHT22;3382;51.576;8.076;2023-01-08T09:31:55;15.60;99.90
6690;DHT22;3382;51.576;8.076;2023-01-08T09:34:22;15.40;99.90
6690;DHT22;3382;51.576;8.076;2023-01-08T09:36:47;15.30;99.90
6690;DHT22;3382;51.576;8.076;2023-01-08T09:39:13;15.30;99.90
6690;DHT22;3382;51.576;8.076;2023-01-08T09:41:42;15.20;99.90
6690;DHT22;3382;51.576;8.076;2023-01-08T09:44:13;15.40;99.90
6690;DHT22;3382;51.576;8.076;2023-01-08T09:46:39;15.50;99.90
6690;DHT22;3382;51.576;8.076;2023-01-08T09:49:06;15.50;99.90
6690;DHT22;3382;51.576;8.076;2023-01-08T09:51:36;15.40;99.90
6690;DHT22;3382;51.576;8.076;2023-01-08T09:54:03;15.50;99.90
6690;DHT22;3382;51.576;8.076;2023-01-08T09:56:32;15.80;99.90
6690;DHT22;3382;51.576;8.076;2023-01-08T09:59:00;16.10;99.90
6690;DHT22;3382;51.576;8.076;2023-01-08T10:01:30;16.30;99.90
6690;DHT22;3382;51.576;8.076;2023-01-08T10:04:06;16.30;99.90
6690;DHT22;3382;51.576;8.076;2023-01-08T10:06:32;16.30;99.90
6690;DHT22;3382;51.576;8.076;2023-01-08T10:08:58;16.20;99.90
6690;DHT22;3382;51.576;8.076;2023-01-08T10:11:27;16.20;99.90
6690;DHT22;3382;51.576;8.076;2023-01-08T10:13:54;16.20;99.90
6690;DHT22;3382;51.576;8.076;2023-01-08T10:16:30;16.20;99.90
6690;DHT22;3382;51.576;8.076;2023-01-08T10:18:58;16.20;99.90
6690;DHT22;3382;51.576;8.076;2023-01-08T10:21:44;16.20;99.90
6690;DHT22;3382;51.576;8.076;2023-01-08T10:24:10;16.10;99.90
6690;DHT22;3382;51.576;8.076;2023-01-08T10:26:37;15.90;99.90
6690;DHT22;3382;51.576;8.076;2023-01-08T10:32:06;15.60;99.90
6690;DHT22;3382;51.576;8.076;2023-01-08T10:34:48;15.40;99.90
6690;DHT22;3382;51.576;8.076;2023-01-08T10:37:38;15.60;99.90
6690;DHT22;3382;51.576;8.076;2023-01-08T10:42:51;15.60;99.90
6690;DHT22;3382;51.576;8.076;2023-01-08T10:45:27;15.80;99.90
6690;DHT22;3382;51.576;8.076;2023-01-08T10:48:03;16.50;99.90
6690;DHT22;3382;51.576;8.076;2023-01-08T10:50:32;16.90;99.90
6690;DHT22;3382;51.576;8.076;2023-01-08T10:53:05;17.10;99.90
6690;DHT22;3382;51.576;8.076;2023-01-08T10:56:00;17.30;99.90
6690;DHT22;3382;51.576;8.076;2023-01-08T10:58:27;17.00;99.90
6690;DHT22;3382;51.576;8.076;2023-01-08T11:00:53;16.80;99.90
6690;DHT22;3382;51.576;8.076;2023-01-08T11:03:30;16.90;99.90
6690;DHT22;3382;51.576;8.076;2023-01-08T11:05:57;17.00;99.90
6690;DHT22;3382;51.576;8.076;2023-01-08T11:08:23;17.10;99.90
6690;DHT22;3382;51.576;8.076;2023-01-08T11:10:57;17.20;99.90
6690;DHT22;3382;51.576;8.076;2023-01-08T11:13:23;17.60;99.90
6690;DHT22;3382;51.576;8.076;2023-01-08T11:18:27;18.00;99.90
6690;DHT22;3382;51.576;8.076;2023-01-08T11:20:56;17.80;99.90
6690;DHT22;3382;51.576;8.076;2023-01-08T11:23:30;17.80;99.90
6690;DHT22;3382;51.576;8.076;2023-01-08T11:26:15;17.60;99.90
6690;DHT22;3382;51.576;8.076;2023-01-08T11:28:55;17.40;99.90
6690;DHT22;3382;51.576;8.076;2023-01-08T11:31:43;17.50;99.90
6690;DHT22;3382;51.576;8.076;2023-01-08T11:37:20;18.30;99.90
6690;DHT22;3382;51.576;8.076;2023-01-08T11:39:47;18.50;99.90
6690;DHT22;3382;51.576;8.076;2023-01-08T11:50:21;18.30;99.90
6690;DHT22;3382;51.576;8.076;2023-01-08T12:01:59;18.40;99.90
6690;DHT22;3382;51.576;8.076;2023-01-08T12:04:40;18.60;99.90
6690;DHT22;3382;51.576;8.076;2023-01-08T12:07:25;18.50;99.90
6690;DHT22;3382;51.576;8.076;2023-01-08T12:10:14;18.80;99.90
6690;DHT22;3382;51.576;8.076;2023-01-08T12:18:22;19.20;99.90
6690;DHT22;3382;51.576;8.076;2023-01-08T12:32:19;19.20;99.90
6690;DHT22;3382;51.576;8.076;2023-01-08T12:34:54;19.40;99.90
6690;DHT22;3382;51.576;8.076;2023-01-08T12:37:43;19.70;99.90
6690;DHT22;3382;51.576;8.076;2023-01-08T12:40:30;19.50;99.90
6690;DHT22;3382;51.576;8.076;2023-01-08T12:42:58;19.60;99.90
6690;DHT22;3382;51.576;8.076;2023-01-08T12:45:31;19.40;99.90
6690;DHT22;3382;51.576;8.076;2023-01-08T12:48:13;19.30;99.90
6690;DHT22;3382;51.576;8.076;2023-01-08T12:50:55;19.10;99.90
6690;DHT22;3382;51.576;8.076;2023-01-08T12:53:36;19.20;99.90
6690;DHT22;3382;51.576;8.076;2023-01-08T13:01:46;18.40;99.90
6690;DHT22;3382;51.576;8.076;2023-01-08T13:04:13;18.30;99.90
6690;DHT22;3382;51.576;8.076;2023-01-08T13:06:50;17.90;99.90
6690;DHT22;3382;51.576;8.076;2023-01-08T13:09:21;17.50;99.90
6690;DHT22;3382;51.576;8.076;2023-01-08T13:11:51;17.20;99.90
6690;DHT22;3382;51.576;8.076;2023-01-08T13:14:17;17.30;99.90
6690;DHT22;3382;51.576;8.076;2023-01-08T13:16:45;17.20;99.90
6690;DHT22;3382;51.576;8.076;2023-01-08T13:19:28;17.00;99.90
6690;DHT22;3382;51.576;8.076;2023-01-08T13:21:59;16.90;99.90
6690;DHT22;3382;51.576;8.076;2023-01-08T13:24:32;17.00;99.90
6690;DHT22;3382;51.576;8.076;2023-01-08T13:29:47;16.80;99.90
6690;DHT22;3382;51.576;8.076;2023-01-08T13:37:42;16.70;99.90
6690;DHT22;3382;51.576;8.076;2023-01-08T13:43:14;16.80;99.90
6690;DHT22;3382;51.576;8.076;2023-01-08T13:45:43;16.90;99.90
6690;DHT22;3382;51.576;8.076;2023-01-08T13:48:29;16.80;99.90
6690;DHT22;3382;51.576;8.076;2023-01-08T13:50:56;17.00;99.90
6690;DHT22;3382;51.576;8.076;2023-01-08T13:53:23;17.30;99.90
6690;DHT22;3382;51.576;8.076;2023-01-08T13:56:01;17.60;99.90
6690;DHT22;3382;51.576;8.076;2023-01-08T13:58:35;18.10;99.90
6690;DHT22;3382;51.576;8.076;2023-01-08T14:01:03;18.20;99.90
6690;DHT22;3382;51.576;8.076;2023-01-08T14:03:34;18.00;99.90
6690;DHT22;3382;51.576;8.076;2023-01-08T14:06:12;18.20;99.90
6690;DHT22;3382;51.576;8.076;2023-01-08T14:08:54;18.30;99.90
6690;DHT22;3382;51.576;8.076;2023-01-08T14:11:44;18.80;99.90
6690;DHT22;3382;51.576;8.076;2023-01-08T14:14:13;19.20;99.90
6690;DHT22;3382;51.576;8.076;2023-01-08T14:16:40;19.90;99.90
6690;DHT22;3382;51.576;8.076;2023-01-08T14:19:05;20.20;99.90
6690;DHT22;3382;51.576;8.076;2023-01-08T14:21:32;20.40;99.90
6690;DHT22;3382;51.576;8.076;2023-01-08T14:23:57;20.60;99.90
6690;DHT22;3382;51.576;8.076;2023-01-08T14:26:32;20.70;99.90
6690;DHT22;3382;51.576;8.076;2023-01-08T14:29:00;20.40;99.90
6690;DHT22;3382;51.576;8.076;2023-01-08T14:31:28;19.70;99.90
6690;DHT22;3382;51.576;8.076;2023-01-08T14:33:55;19.10;99.90
6690;DHT22;3382;51.576;8.076;2023-01-08T14:36:22;19.10;99.90
6690;DHT22;3382;51.576;8.076;2023-01-08T14:38:48;18.50;99.90
6690;DHT22;3382;51.576;8.076;2023-01-08T14:41:33;18.10;99.90
6690;DHT22;3382;51.576;8.076;2023-01-08T14:44:19;17.80;99.90
6690;DHT22;3382;51.576;8.076;2023-01-08T14:46:45;17.90;99.90
6690;DHT22;3382;51.576;8.076;2023-01-08T14:49:32;17.80;99.90
6690;DHT22;3382;51.576;8.076;2023-01-08T14:52:00;17.70;99.90
6690;DHT22;3382;51.576;8.076;2023-01-08T14:54:30;17.70;99.90
6690;DHT22;3382;51.576;8.076;2023-01-08T14:56:57;17.80;99.90
6690;DHT22;3382;51.576;8.076;2023-01-08T14:59:28;17.70;99.90
6690;DHT22;3382;51.576;8.076;2023-01-08T15:02:00;17.40;99.90
6690;DHT22;3382;51.576;8.076;2023-01-08T15:04:27;17.20;99.90
6690;DHT22;3382;51.576;8.076;2023-01-08T15:07:05;16.90;99.90
6690;DHT22;3382;51.576;8.076;2023-01-08T15:09:33;16.90;99.90
6690;DHT22;3382;51.576;8.076;2023-01-08T15:12:05;16.60;99.90
6690;DHT22;3382;51.576;8.076;2023-01-08T15:14:31;16.20;99.90
6690;DHT22;3382;51.576;8.076;2023-01-08T15:17:09;16.10;99.90
6690;DHT22;3382;51.576;8.076;2023-01-08T15:19:43;16.10;99.90
6690;DHT22;3382;51.576;8.076;2023-01-08T15:22:19;16.20;99.90
6690;DHT22;3382;51.576;8.076;2023-01-08T15:25:03;16.30;99.90
6690;DHT22;3382;51.576;8.076;2023-01-08T15:27:30;16.10;99.90
6690;DHT22;3382;51.576;8.076;2023-01-08T15:30:04;16.30;99.90
6690;DHT22;3382;51.576;8.076;2023-01-08T15:32:31;16.50;99.90
6690;DHT22;3382;51.576;8.076;2023-01-08T15:34:59;16.30;99.90
6690;DHT22;3382;51.576;8.076;2023-01-08T15:37:26;16.20;99.90
6690;DHT22;3382;51.576;8.076;2023-01-08T15:39:51;16.10;99.90
6690;DHT22;3382;51.576;8.076;2023-01-08T15:42:31;16.00;99.90
6690;DHT22;3382;51.576;8.076;2023-01-08T15:45:18;15.70;99.90
6690;DHT22;3382;51.576;8.076;2023-01-08T15:47:45;15.30;99.90
6690;DHT22;3382;51.576;8.076;2023-01-08T15:50:11;16.00;99.90
6690;DHT22;3382;51.576;8.076;2023-01-08T15:52:39;16.90;99.90
6690;DHT22;3382;51.576;8.076;2023-01-08T15:55:05;17.20;99.90
6690;DHT22;3382;51.576;8.076;2023-01-08T15:57:31;16.60;99.90
6690;DHT22;3382;51.576;8.076;2023-01-08T15:59:57;15.90;99.90
6690;DHT22;3382;51.576;8.076;2023-01-08T16:02:23;15.40;99.90
6690;DHT22;3382;51.576;8.076;2023-01-08T16:04:53;15.00;99.90
6690;DHT22;3382;51.576;8.076;2023-01-08T16:07:19;14.70;99.90
6690;DHT22;3382;51.576;8.076;2023-01-08T16:09:45;14.40;99.90
6690;DHT22;3382;51.576;8.076;2023-01-08T16:12:11;14.00;99.90
6690;DHT22;3382;51.576;8.076;2023-01-08T16:14:36;13.70;99.90
6690;DHT22;3382;51.576;8.076;2023-01-08T16:17:03;13.40;99.90
6690;DHT22;3382;51.576;8.076;2023-01-08T16:19:30;13.20;99.90
6690;DHT22;3382;51.576;8.076;2023-01-08T16:21:56;12.90;99.90
6690;DHT22;3382;51.576;8.076;2023-01-08T16:24:22;12.60;99.90
6690;DHT22;3382;51.576;8.076;2023-01-08T16:26:48;12.30;99.90
6690;DHT22;3382;51.576;8.076;2023-01-08T16:29:14;12.30;99.90
6690;DHT22;3382;51.576;8.076;2023-01-08T16:31:43;12.10;99.90
6690;DHT22;3382;51.576;8.076;2023-01-08T16:34:09;11.80;99.90
6690;DHT22;3382;51.576;8.076;2023-01-08T16:36:35;11.60;99.90
6690;DHT22;3382;51.576;8.076;2023-01-08T16:39:01;11.50;99.90
6690;DHT22;3382;51.576;8.076;2023-01-08T16:41:26;11.30;99.90
6690;DHT22;3382;51.576;8.076;2023-01-08T16:43:52;11.20;99.90
6690;DHT22;3382;51.576;8.076;2023-01-08T16:46:18;11.30;99.90
6690;DHT22;3382;51.576;8.076;2023-01-08T16:48:44;11.10;99.90
6690;DHT22;3382;51.576;8.076;2023-01-08T16:51:11;11.10;99.90
6690;DHT22;3382;51.576;8.076;2023-01-08T16:53:37;11.10;99.90
6690;DHT22;3382;51.576;8.076;2023-01-08T16:56:03;11.00;99.90
6690;DHT22;3382;51.576;8.076;2023-01-08T16:58:29;11.00;99.90
6690;DHT22;3382;51.576;8.076;2023-01-08T17:00:56;11.00;99.90
6690;DHT22;3382;51.576;8.076;2023-01-08T17:03:22;11.10;99.90
6690;DHT22;3382;51.576;8.076;2023-01-08T17:05:48;11.20;99.90
6690;DHT22;3382;51.576;8.076;2023-01-08T17:08:14;11.20;99.90
6690;DHT22;3382;51.576;8.076;2023-01-08T17:10:41;11.00;99.90
6690;DHT22;3382;51.576;8.076;2023-01-08T17:13:07;10.90;99.90
6690;DHT22;3382;51.576;8.076;2023-01-08T17:15:33;10.90;99.90
6690;DHT22;3382;51.576;8.076;2023-01-08T17:18:00;10.90;99.90
6690;DHT22;3382;51.576;8.076;2023-01-08T17:20:25;10.90;99.90
6690;DHT22;3382;51.576;8.076;2023-01-08T17:22:51;10.90;99.90
6690;DHT22;3382;51.576;8.076;2023-01-08T17:25:17;10.90;99.90
6690;DHT22;3382;51.576;8.076;2023-01-08T17:27:42;11.00;99.90
6690;DHT22;3382;51.576;8.076;2023-01-08T17:30:10;10.90;99.90
6690;DHT22;3382;51.576;8.076;2023-01-08T17:32:37;10.90;99.90
6690;DHT22;3382;51.576;8.076;2023-01-08T17:35:03;11.10;99.90